createdAt,value
2018-11-11T00:00:19.886Z,14.97
2018-11-11T00:02:50.256Z,15.97
2018-11-11T00:05:20.435Z,15.53
2018-11-11T00:07:50.055Z,16.40
2018-11-11T00:10:19.648Z,15.33
2018-11-11T00:12:49.152Z,15.50
2018-11-11T00:15:18.831Z,15.73
2018-11-11T00:17:48.879Z,15.40
2018-11-11T00:20:18.382Z,14.93
2018-11-11T00:22:47.616Z,14.70
2018-11-11T00:25:16.947Z,15.17
2018-11-11T00:27:46.310Z,14.83
2018-11-11T00:30:17.014Z,14.57
2018-11-11T00:32:46.310Z,14.33
2018-11-11T00:35:15.669Z,14.03
2018-11-11T00:37:45.116Z,13.40
2018-11-11T00:40:15.522Z,12.37
2018-11-11T00:42:45.354Z,12.80
2018-11-11T00:45:15.542Z,12.87
2018-11-11T00:47:45.593Z,11.53
2018-11-11T00:50:15.120Z,11.20
2018-11-11T00:52:44.505Z,11.20
2018-11-11T00:55:15.415Z,10.17
2018-11-11T00:57:45.148Z,10.73
2018-11-11T01:00:15.979Z,10.90
2018-11-11T01:02:45.961Z,10.43
2018-11-11T01:05:15.910Z,10.53
2018-11-11T01:07:45.415Z,11.33
2018-11-11T01:10:16.117Z,10.03
2018-11-11T01:12:46.231Z,9.50
2018-11-11T01:15:16.609Z,9.30
2018-11-11T01:17:46.143Z,9.33
2018-11-11T01:20:17.850Z,10.43
2018-11-11T01:22:47.559Z,11.50
2018-11-11T01:25:18.144Z,10.97
2018-11-11T01:27:47.589Z,10.90
2018-11-11T01:30:16.996Z,10.63
2018-11-11T01:32:46.298Z,10.37
2018-11-11T01:35:16.693Z,10.77
2018-11-11T01:37:46.323Z,10.80
2018-11-11T01:40:15.932Z,11.13
2018-11-11T01:42:45.318Z,11.13
2018-11-11T01:45:19.444Z,11.07
2018-11-11T01:47:49.680Z,10.87
2018-11-11T01:50:19.027Z,11.60
2018-11-11T01:52:48.468Z,11.33
2018-11-11T01:55:18.046Z,11.93
2018-11-11T01:57:47.379Z,11.80
2018-11-11T02:00:18.110Z,12.67
2018-11-11T02:02:48.328Z,11.63
2018-11-11T02:05:17.832Z,13.47
2018-11-11T02:07:48.666Z,15.03
2018-11-11T02:10:18.070Z,15.07
2018-11-11T02:12:47.880Z,15.93
2018-11-11T02:15:18.280Z,15.47
2018-11-11T02:17:47.640Z,15.47
2018-11-11T02:20:18.292Z,14.93
2018-11-11T02:22:48.753Z,11.23
2018-11-11T02:25:18.013Z,11.23
2018-11-11T02:27:47.521Z,11.70
2018-11-11T02:30:18.990Z,10.20
2018-11-11T02:32:48.523Z,10.03
2018-11-11T02:35:18.334Z,10.87
2018-11-11T02:37:47.837Z,10.77
2018-11-11T02:40:18.477Z,10.23
2018-11-11T02:42:48.496Z,10.57
2018-11-11T02:45:18.891Z,10.10
2018-11-11T02:47:48.210Z,9.43
2018-11-11T02:50:18.636Z,9.27
2018-11-11T02:52:48.140Z,10.37
2018-11-11T02:55:18.191Z,10.33
2018-11-11T02:57:48.071Z,10.77
2018-11-11T03:00:18.886Z,10.60
2018-11-11T03:02:48.512Z,9.07
2018-11-11T03:05:18.690Z,10.03
2018-11-11T03:07:48.136Z,9.53
2018-11-11T03:10:17.938Z,9.83
2018-11-11T03:12:48.375Z,9.67
2018-11-11T03:15:18.083Z,9.37
2018-11-11T03:17:47.381Z,10.43
2018-11-11T03:20:17.471Z,10.37
2018-11-11T03:22:46.799Z,9.50
2018-11-11T03:25:17.180Z,9.73
2018-11-11T03:27:46.527Z,10.50
2018-11-11T03:30:17.269Z,9.83
2018-11-11T03:32:46.966Z,10.33
2018-11-11T03:35:16.582Z,11.07
2018-11-11T03:37:46.797Z,9.70
2018-11-11T03:40:17.518Z,10.00
2018-11-11T03:42:47.440Z,9.17
2018-11-11T03:45:18.277Z,9.93
2018-11-11T03:47:48.705Z,9.33
2018-11-11T03:50:18.333Z,10.07
2018-11-11T03:52:47.919Z,9.80
2018-11-11T03:55:17.552Z,9.70
2018-11-11T03:57:47.024Z,9.60
2018-11-11T04:00:17.039Z,9.03
2018-11-11T04:02:46.447Z,8.93
2018-11-11T04:05:17.488Z,8.90
2018-11-11T04:07:46.922Z,8.87
2018-11-11T04:10:17.786Z,8.83
2018-11-11T04:12:47.532Z,9.33
2018-11-11T04:15:18.246Z,9.63
2018-11-11T04:17:48.081Z,9.10
2018-11-11T04:20:18.792Z,9.37
2018-11-11T04:22:48.317Z,8.37
2018-11-11T04:25:18.578Z,7.67
2018-11-11T04:27:48.039Z,7.77
2018-11-11T04:30:17.555Z,8.37
2018-11-11T04:32:47.025Z,8.00
2018-11-11T04:35:16.356Z,7.67
2018-11-11T04:37:46.055Z,7.77
2018-11-11T04:40:15.561Z,7.97
2018-11-11T04:42:45.066Z,8.00
2018-11-11T04:45:15.543Z,8.17
2018-11-11T04:47:45.712Z,7.43
2018-11-11T04:50:16.437Z,7.30
2018-11-11T04:52:46.567Z,7.07
2018-11-11T04:55:15.960Z,7.83
2018-11-11T04:57:45.367Z,6.40
2018-11-11T05:00:15.586Z,6.30
2018-11-11T05:02:45.091Z,6.63
2018-11-11T05:05:14.991Z,6.10
2018-11-11T05:07:44.517Z,5.83
2018-11-11T05:10:14.627Z,6.23
2018-11-11T05:12:43.948Z,6.03
2018-11-11T05:15:14.250Z,6.20
2018-11-11T05:17:44.164Z,6.67
2018-11-11T05:20:14.084Z,6.27
2018-11-11T05:22:44.041Z,5.80
2018-11-11T05:25:14.702Z,5.93
2018-11-11T05:27:44.636Z,5.93
2018-11-11T05:30:14.968Z,5.50
2018-11-11T05:32:44.363Z,5.83
2018-11-11T05:35:14.175Z,5.10
2018-11-11T05:37:43.895Z,5.27
2018-11-11T05:40:14.002Z,5.50
2018-11-11T05:42:44.072Z,5.33
2018-11-11T05:45:14.558Z,5.87
2018-11-11T05:47:44.308Z,6.50
2018-11-11T05:50:14.850Z,6.50
2018-11-11T05:52:45.319Z,6.63
2018-11-11T05:55:14.865Z,6.77
2018-11-11T05:57:44.230Z,6.80
2018-11-11T06:00:14.746Z,7.10
2018-11-11T06:02:44.562Z,7.47
2018-11-11T06:05:14.790Z,7.30
2018-11-11T06:07:44.179Z,6.90
2018-11-11T06:10:14.707Z,7.70
2018-11-11T06:12:44.211Z,6.90
2018-11-11T06:15:14.384Z,7.63
2018-11-11T06:17:43.836Z,7.27
2018-11-11T06:20:15.370Z,7.13
2018-11-11T06:22:44.995Z,7.53
2018-11-11T06:25:14.395Z,7.33
2018-11-11T06:27:44.077Z,7.97
2018-11-11T06:30:14.058Z,8.47
2018-11-11T06:32:43.422Z,8.20
2018-11-11T06:35:12.925Z,8.30
2018-11-11T06:37:42.530Z,8.53
2018-11-11T06:40:13.104Z,8.17
2018-11-11T06:42:42.852Z,8.90
2018-11-11T06:45:13.429Z,8.80
2018-11-11T06:47:43.618Z,8.03
2018-11-11T06:50:14.046Z,8.47
2018-11-11T06:52:44.163Z,8.87
2018-11-11T06:55:14.035Z,8.57
2018-11-11T06:57:43.308Z,9.73
2018-11-11T07:00:14.452Z,8.93
2018-11-11T07:02:55.086Z,10.63
2018-11-11T07:05:24.485Z,10.77
2018-11-11T07:07:53.784Z,13.10
2018-11-11T07:10:23.296Z,10.90
2018-11-11T07:12:52.692Z,9.57
2018-11-11T07:15:22.095Z,11.37
2018-11-11T07:17:51.699Z,12.13
2018-11-11T07:20:21.098Z,12.70
2018-11-11T07:22:50.605Z,12.20
2018-11-11T07:25:20.183Z,11.87
2018-11-11T07:27:49.551Z,13.07
2018-11-11T07:30:19.018Z,12.90
2018-11-11T07:32:48.624Z,12.90
2018-11-11T07:35:18.211Z,14.63
2018-11-11T07:37:47.802Z,14.23
2018-11-11T07:40:17.748Z,14.00
2018-11-11T07:42:47.027Z,13.77
2018-11-11T07:45:16.317Z,14.73
2018-11-11T07:47:45.779Z,15.07
2018-11-11T07:50:15.028Z,15.07
2018-11-11T07:52:44.550Z,15.03
2018-11-11T07:55:13.899Z,15.63
2018-11-11T07:57:43.363Z,15.53
2018-11-11T08:00:14.162Z,16.33
2018-11-11T08:02:44.104Z,16.10
2018-11-11T08:05:13.613Z,16.30
2018-11-11T08:07:42.906Z,16.63
2018-11-11T08:10:23.881Z,17.30
2018-11-11T08:12:53.108Z,17.60
2018-11-11T08:15:22.784Z,20.93
2018-11-11T08:17:52.292Z,29.93
2018-11-11T08:20:21.694Z,20.40
2018-11-11T08:22:51.196Z,19.80
2018-11-11T08:25:20.846Z,19.13
2018-11-11T08:27:50.084Z,19.77
2018-11-11T08:30:19.287Z,19.10
2018-11-11T08:32:48.702Z,19.53
2018-11-11T08:35:18.824Z,18.20
2018-11-11T08:37:48.222Z,18.80
2018-11-11T08:40:18.571Z,16.53
2018-11-11T08:42:47.890Z,16.27
2018-11-11T08:45:17.861Z,16.23
2018-11-11T08:47:47.161Z,15.97
2018-11-11T08:50:16.562Z,15.07
2018-11-11T08:52:46.826Z,15.37
2018-11-11T08:55:16.190Z,16.03
2018-11-11T08:57:45.856Z,12.83
2018-11-11T09:00:15.812Z,12.47
2018-11-11T09:02:45.051Z,12.70
2018-11-11T09:05:14.555Z,12.30
2018-11-11T09:07:43.911Z,10.60
2018-11-11T09:10:13.619Z,10.17
2018-11-11T09:12:42.913Z,9.43
2018-11-11T09:15:14.143Z,10.30
2018-11-11T09:17:43.969Z,8.63
2018-11-11T09:20:14.970Z,9.00
2018-11-11T09:22:44.624Z,8.73
2018-11-11T09:25:14.034Z,8.40
2018-11-11T09:27:43.839Z,7.53
2018-11-11T09:30:14.560Z,7.60
2018-11-11T09:32:44.280Z,8.60
2018-11-11T09:35:13.816Z,7.60
2018-11-11T09:37:43.354Z,6.77
2018-11-11T09:40:13.621Z,6.63
2018-11-11T09:42:43.716Z,6.57
2018-11-11T09:45:14.477Z,6.37
2018-11-11T09:47:44.565Z,6.10
2018-11-11T09:50:16.236Z,5.60
2018-11-11T09:52:45.832Z,5.27
2018-11-11T09:55:15.754Z,5.17
2018-11-11T09:57:44.985Z,4.60
2018-11-11T10:00:17.529Z,4.53
2018-11-11T10:02:54.097Z,4.23
2018-11-11T10:05:30.463Z,3.97
2018-11-11T10:08:04.076Z,4.10
2018-11-11T10:10:41.251Z,3.80
2018-11-11T10:13:16.803Z,3.50
2018-11-11T10:17:55.936Z,3.20
2018-11-11T10:20:32.660Z,2.40
2018-11-11T10:24:08.472Z,2.33
2018-11-11T10:27:41.972Z,2.43
2018-11-11T10:30:17.242Z,2.87
2018-11-11T10:33:03.513Z,3.13
2018-11-11T10:36:35.885Z,3.87
2018-11-11T10:39:09.004Z,3.90
2018-11-11T10:41:48.311Z,4.30
2018-11-11T10:44:21.611Z,4.47
2018-11-11T10:47:07.285Z,4.67
2018-11-11T10:49:45.349Z,4.90
2018-11-11T10:52:14.836Z,4.73
2018-11-11T10:54:44.299Z,5.27
2018-11-11T10:57:13.799Z,5.20
2018-11-11T10:59:43.202Z,4.77
2018-11-11T11:02:17.647Z,4.80
2018-11-11T11:04:52.304Z,4.63
2018-11-11T11:07:21.646Z,5.00
2018-11-11T11:09:50.914Z,4.87
2018-11-11T11:12:20.351Z,4.63
2018-11-11T11:14:49.751Z,4.40
2018-11-11T11:17:19.359Z,4.20
2018-11-11T11:19:48.651Z,4.33
2018-11-11T11:22:18.058Z,4.43
2018-11-11T11:24:47.463Z,4.13
2018-11-11T11:27:16.933Z,3.80
2018-11-11T11:29:46.366Z,3.87
2018-11-11T11:32:15.813Z,3.73
2018-11-11T11:34:45.175Z,3.37
2018-11-11T11:37:14.590Z,3.83
2018-11-11T11:39:43.969Z,4.00
2018-11-11T11:42:13.210Z,3.53
2018-11-11T11:44:42.673Z,3.80
2018-11-11T11:47:12.098Z,3.43
2018-11-11T11:49:41.580Z,3.40
2018-11-11T11:52:11.118Z,3.47
2018-11-11T11:54:40.486Z,3.43
2018-11-11T11:57:10.094Z,3.80
2018-11-11T11:59:39.698Z,3.70
2018-11-11T12:02:09.079Z,3.23
2018-11-11T12:04:38.505Z,3.67
2018-11-11T12:07:08.008Z,4.00
2018-11-11T12:09:37.512Z,4.20
2018-11-11T12:12:07.177Z,3.90
2018-11-11T12:14:36.523Z,3.83
2018-11-11T12:17:06.625Z,3.87
2018-11-11T12:19:36.041Z,3.90
2018-11-11T12:22:05.923Z,3.50
2018-11-11T12:24:35.254Z,3.63
2018-11-11T12:27:04.763Z,3.90
2018-11-11T12:29:34.478Z,4.00
2018-11-11T12:32:04.382Z,4.30
2018-11-11T12:34:33.885Z,4.20
2018-11-11T12:37:03.145Z,4.60
2018-11-11T12:39:32.661Z,4.00
2018-11-11T12:42:16.241Z,4.23
2018-11-11T12:44:59.472Z,4.10
2018-11-11T12:47:32.536Z,4.20
2018-11-11T12:50:01.876Z,4.60
2018-11-11T12:52:31.249Z,4.33
2018-11-11T12:55:00.745Z,4.30
2018-11-11T12:57:29.936Z,4.07
2018-11-11T12:59:59.342Z,3.80
2018-11-11T13:02:28.847Z,3.73
2018-11-11T13:04:58.309Z,3.77
2018-11-11T13:07:27.756Z,4.20
2018-11-11T13:09:57.156Z,4.20
2018-11-11T13:12:26.988Z,3.47
2018-11-11T13:14:56.423Z,3.60
2018-11-11T13:17:25.972Z,3.80
2018-11-11T13:19:55.295Z,3.37
2018-11-11T13:22:25.093Z,3.97
2018-11-11T13:24:54.572Z,3.30
2018-11-11T13:27:24.230Z,3.50
2018-11-11T13:29:53.600Z,3.47
2018-11-11T13:32:23.102Z,3.30
2018-11-11T13:34:52.353Z,3.80
2018-11-11T13:37:21.815Z,3.40
2018-11-11T13:39:51.300Z,3.83
2018-11-11T13:42:20.714Z,3.43
2018-11-11T13:44:50.108Z,3.13
2018-11-11T13:47:19.620Z,3.10
2018-11-11T13:49:49.014Z,3.10
2018-11-11T13:52:18.657Z,3.33
2018-11-11T13:54:48.007Z,2.83
2018-11-11T13:57:17.321Z,3.50
2018-11-11T13:59:46.811Z,3.27
2018-11-11T14:02:16.244Z,3.20
2018-11-11T14:04:45.737Z,3.30
2018-11-11T14:07:15.313Z,3.57
2018-11-11T14:09:44.693Z,3.23
2018-11-11T14:12:14.038Z,3.53
2018-11-11T14:14:43.442Z,3.30
2018-11-11T14:17:13.049Z,3.30
2018-11-11T14:19:42.685Z,2.87
2018-11-11T14:22:12.160Z,3.23
2018-11-11T14:24:41.899Z,2.80
2018-11-11T14:27:11.271Z,2.77
2018-11-11T14:29:40.671Z,2.67
2018-11-11T14:32:10.146Z,2.60
2018-11-11T14:34:39.478Z,2.67
2018-11-11T14:37:08.981Z,2.67
2018-11-11T14:39:38.523Z,2.73
2018-11-11T14:42:07.905Z,2.50
2018-11-11T14:44:37.416Z,2.57
2018-11-11T14:47:06.952Z,2.90
2018-11-11T14:49:36.404Z,2.80
2018-11-11T14:52:09.183Z,2.47
2018-11-11T14:54:38.583Z,2.57
2018-11-11T14:57:07.986Z,2.50
2018-11-11T14:59:37.426Z,2.17
2018-11-11T15:02:06.858Z,2.10
2018-11-11T15:04:36.264Z,2.27
2018-11-11T15:07:05.797Z,2.20
2018-11-11T15:09:35.198Z,2.10
2018-11-11T15:12:04.703Z,2.03
2018-11-11T15:14:34.115Z,1.90
2018-11-11T15:17:03.610Z,2.23
2018-11-11T15:19:33.177Z,2.03
2018-11-11T15:22:02.408Z,2.20
2018-11-11T15:24:31.816Z,2.27
2018-11-11T15:27:01.778Z,2.00
2018-11-11T15:29:31.395Z,2.30
2018-11-11T15:32:00.840Z,1.93
2018-11-11T15:34:30.344Z,2.20
2018-11-11T15:36:59.739Z,1.90
2018-11-11T15:39:29.145Z,2.03
2018-11-11T15:41:58.549Z,1.83
2018-11-11T15:44:27.845Z,1.90
2018-11-11T15:46:57.250Z,2.10
2018-11-11T15:49:27.049Z,1.53
2018-11-11T15:51:56.367Z,1.50
2018-11-11T15:54:25.814Z,1.87
2018-11-11T15:56:55.163Z,1.50
2018-11-11T15:59:24.592Z,1.90
2018-11-11T16:01:54.072Z,1.70
2018-11-11T16:04:23.467Z,2.07
2018-11-11T16:06:52.875Z,1.60
2018-11-11T16:09:22.200Z,1.90
2018-11-11T16:11:52.818Z,1.87
2018-11-11T16:14:22.317Z,2.00
2018-11-11T16:16:51.812Z,2.13
2018-11-11T16:19:21.477Z,1.80
2018-11-11T16:21:50.987Z,1.73
2018-11-11T16:24:20.429Z,2.20
2018-11-11T16:26:49.829Z,1.77
2018-11-11T16:29:19.179Z,1.50
2018-11-11T16:31:48.691Z,2.00
2018-11-11T16:34:18.245Z,1.70
2018-11-11T16:36:47.682Z,2.17
2018-11-11T16:39:17.175Z,1.87
2018-11-11T16:41:46.883Z,1.90
2018-11-11T16:44:16.194Z,1.83
2018-11-11T16:46:45.871Z,1.70
2018-11-11T16:49:15.580Z,1.70
2018-11-11T16:51:45.388Z,1.70
2018-11-11T16:54:14.861Z,1.60
2018-11-11T16:56:44.183Z,1.60
2018-11-11T16:59:14.716Z,1.50
2018-11-11T17:01:44.151Z,1.40
2018-11-11T17:04:13.804Z,1.50
2018-11-11T17:06:43.229Z,1.70
2018-11-11T17:09:14.575Z,1.60
2018-11-11T17:11:43.979Z,1.70
2018-11-11T17:14:13.545Z,1.70
2018-11-11T17:16:42.923Z,1.50
2018-11-11T17:19:12.694Z,1.63
2018-11-11T17:21:42.057Z,1.40
2018-11-11T17:24:11.413Z,1.57
2018-11-11T17:26:40.823Z,1.57
2018-11-11T17:29:10.303Z,1.47
2018-11-11T17:31:40.114Z,1.40
2018-11-11T17:34:09.428Z,1.60
2018-11-11T17:36:38.919Z,1.53
2018-11-11T17:39:11.201Z,1.50
2018-11-11T17:41:40.904Z,1.27
2018-11-11T17:44:10.339Z,1.40
2018-11-11T17:46:39.742Z,1.50
2018-11-11T17:49:09.289Z,1.40
2018-11-11T17:51:38.711Z,1.20
2018-11-11T17:54:08.229Z,1.60
2018-11-11T17:56:37.717Z,1.50
2018-11-11T17:59:07.221Z,1.60
2018-11-11T18:01:36.726Z,1.40
2018-11-11T18:04:06.815Z,1.40
2018-11-11T18:06:36.342Z,1.43
2018-11-11T18:09:09.551Z,1.40
2018-11-11T18:11:39.665Z,1.83
2018-11-11T18:14:09.647Z,1.40
2018-11-11T18:16:39.179Z,1.40
2018-11-11T18:19:08.616Z,1.50
2018-11-11T18:21:38.803Z,1.53
2018-11-11T18:24:08.203Z,1.43
2018-11-11T18:26:37.863Z,1.50
2018-11-11T18:29:07.419Z,1.40
2018-11-11T18:31:36.821Z,1.30
2018-11-11T18:34:06.544Z,1.60
2018-11-11T18:36:35.992Z,1.70
2018-11-11T18:39:08.755Z,1.40
2018-11-11T18:41:38.128Z,1.57
2018-11-11T18:44:07.828Z,1.53
2018-11-11T18:46:37.883Z,1.53
2018-11-11T18:49:08.570Z,1.47
2018-11-11T18:51:38.421Z,1.30
2018-11-11T18:54:08.005Z,1.30
2018-11-11T18:56:37.488Z,1.30
2018-11-11T18:59:07.267Z,1.40
2018-11-11T19:01:36.657Z,1.33
2018-11-11T19:04:06.686Z,1.30
2018-11-11T19:06:36.228Z,1.47
2018-11-11T19:09:09.415Z,1.30
2018-11-11T19:11:38.922Z,1.63
2018-11-11T19:14:08.849Z,1.40
2018-11-11T19:16:38.651Z,1.50
2018-11-11T19:19:07.945Z,1.37
2018-11-11T19:21:37.557Z,1.20
2018-11-11T19:24:07.132Z,1.40
2018-11-11T19:26:37.690Z,1.60
2018-11-11T19:29:07.450Z,1.37
2018-11-11T19:31:37.103Z,1.73
2018-11-11T19:34:06.654Z,1.50
2018-11-11T19:36:36.178Z,1.73
2018-11-11T19:39:08.946Z,1.53
2018-11-11T19:41:38.660Z,1.70
2018-11-11T19:44:08.416Z,1.60
2018-11-11T19:46:38.243Z,1.90
2018-11-11T19:49:08.250Z,1.83
2018-11-11T19:51:37.934Z,2.20
2018-11-11T19:54:07.455Z,2.10
2018-11-11T19:56:37.285Z,2.13
2018-11-11T19:59:07.886Z,2.10
2018-11-11T20:01:38.285Z,2.10
2018-11-11T20:04:08.802Z,2.20
2018-11-11T20:06:38.849Z,2.30
2018-11-11T20:09:11.004Z,2.30
2018-11-11T20:11:40.948Z,2.20
2018-11-11T20:14:10.595Z,2.47
2018-11-11T20:16:40.271Z,2.60
2018-11-11T20:19:09.925Z,2.57
2018-11-11T20:21:39.832Z,2.90
2018-11-11T20:24:10.109Z,2.30
2018-11-11T20:26:39.887Z,2.83
2018-11-11T20:29:09.739Z,2.63
2018-11-11T20:31:39.747Z,2.97
2018-11-11T20:34:09.449Z,2.90
2018-11-11T20:36:39.067Z,2.93
2018-11-11T20:39:11.919Z,3.03
2018-11-11T20:41:41.549Z,3.23
2018-11-11T20:44:10.964Z,3.50
2018-11-11T20:46:40.352Z,3.30
2018-11-11T20:49:09.760Z,3.40
2018-11-11T20:51:39.267Z,3.33
2018-11-11T20:54:08.670Z,3.10
2018-11-11T20:56:38.229Z,2.93
2018-11-11T20:59:07.572Z,2.90
2018-11-11T21:01:37.178Z,3.40
2018-11-11T21:04:06.687Z,3.30
2018-11-11T21:06:36.185Z,3.70
2018-11-11T21:09:09.411Z,3.60
2018-11-11T21:11:39.151Z,4.27
2018-11-11T21:14:09.027Z,3.77
2018-11-11T21:16:38.293Z,3.60
2018-11-11T21:19:08.315Z,3.97
2018-11-11T21:21:37.819Z,4.20
2018-11-11T21:24:07.222Z,4.17
2018-11-11T21:26:36.555Z,4.00
2018-11-11T21:29:06.127Z,4.13
2018-11-11T21:31:35.529Z,4.10
2018-11-11T21:34:04.952Z,4.23
2018-11-11T21:36:34.327Z,4.30
2018-11-11T21:39:04.600Z,5.00
2018-11-11T21:41:33.955Z,4.47
2018-11-11T21:44:03.357Z,4.43
2018-11-11T21:46:32.708Z,4.80
2018-11-11T21:49:02.160Z,4.37
2018-11-11T21:51:31.459Z,4.80
2018-11-11T21:54:00.833Z,4.47
2018-11-11T21:56:30.370Z,4.47
2018-11-11T21:58:59.872Z,4.60
2018-11-11T22:01:29.173Z,4.17
2018-11-11T22:03:58.415Z,4.67
2018-11-11T22:06:27.974Z,3.97
2018-11-11T22:08:57.501Z,4.40
2018-11-11T22:11:26.943Z,3.83
2018-11-11T22:13:56.432Z,4.20
2018-11-11T22:16:25.887Z,4.00
2018-11-11T22:18:55.210Z,4.40
2018-11-11T22:21:24.752Z,4.20
2018-11-11T22:23:56.140Z,4.30
2018-11-11T22:26:26.055Z,3.70
2018-11-11T22:28:55.403Z,4.00
2018-11-11T22:31:24.757Z,3.83
2018-11-11T22:33:54.158Z,4.00
2018-11-11T22:36:23.502Z,4.03
2018-11-11T22:38:52.856Z,4.10
2018-11-11T22:41:22.365Z,4.10
2018-11-11T22:43:51.864Z,4.80
2018-11-11T22:46:21.169Z,7.73
2018-11-11T22:48:50.754Z,7.90
2018-11-11T22:51:20.599Z,7.53
2018-11-11T22:53:50.235Z,6.73
2018-11-11T22:56:19.697Z,7.00
2018-11-11T22:58:49.114Z,7.23
2018-11-11T23:01:19.403Z,7.20
2018-11-11T23:03:48.975Z,7.27
2018-11-11T23:06:18.690Z,6.80
2018-11-11T23:08:48.345Z,7.33
2018-11-11T23:11:18.355Z,8.23
2018-11-11T23:13:47.765Z,8.27
2018-11-11T23:16:17.274Z,9.07
2018-11-11T23:18:46.669Z,8.57
2018-11-11T23:21:16.231Z,8.50
2018-11-11T23:23:45.578Z,8.63
2018-11-11T23:26:14.870Z,9.53
2018-11-11T23:28:44.069Z,9.40
2018-11-11T23:31:13.488Z,9.07
2018-11-11T23:33:43.529Z,9.43
2018-11-11T23:36:13.431Z,9.47
2018-11-11T23:38:42.947Z,9.63
2018-11-11T23:41:12.308Z,8.80
2018-11-11T23:43:41.919Z,9.10
2018-11-11T23:46:11.323Z,10.13
2018-11-11T23:48:40.819Z,10.57
2018-11-11T23:51:10.330Z,9.93
2018-11-11T23:53:39.741Z,10.43
2018-11-11T23:56:09.234Z,9.97
2018-11-11T23:58:38.656Z,10.63
